createdAt,value
2018-09-29T00:00:04.958Z,32.10
2018-09-29T00:02:33.294Z,32.10
2018-09-29T00:05:01.809Z,32.30
2018-09-29T00:07:30.081Z,32.60
2018-09-29T00:09:58.558Z,32.00
2018-09-29T00:12:26.933Z,31.60
2018-09-29T00:14:55.204Z,32.00
2018-09-29T00:17:23.678Z,32.00
2018-09-29T00:19:52.278Z,32.10
2018-09-29T00:22:20.804Z,32.60
2018-09-29T00:24:49.479Z,32.60
2018-09-29T00:27:18.209Z,32.40
2018-09-29T00:29:46.767Z,32.60
2018-09-29T00:32:15.105Z,32.90
2018-09-29T00:34:43.610Z,33.60
2018-09-29T00:37:12.005Z,32.90
2018-09-29T00:39:40.453Z,33.60
2018-09-29T00:42:08.742Z,34.00
2018-09-29T00:44:37.209Z,34.00
2018-09-29T00:47:05.665Z,33.60
2018-09-29T00:49:34.017Z,34.00
2018-09-29T00:52:02.366Z,33.80
2018-09-29T00:54:30.632Z,33.90
2018-09-29T00:56:58.872Z,33.80
2018-09-29T00:59:27.271Z,33.30
2018-09-29T01:01:55.553Z,33.40
2018-09-29T01:04:23.919Z,33.90
2018-09-29T01:06:52.398Z,33.50
2018-09-29T01:09:20.824Z,33.90
2018-09-29T01:11:49.278Z,33.50
2018-09-29T01:14:17.590Z,34.70
2018-09-29T01:16:46.033Z,34.10
2018-09-29T01:19:14.264Z,34.00
2018-09-29T01:21:42.647Z,34.30
2018-09-29T01:24:10.855Z,34.80
2018-09-29T01:26:39.133Z,34.50
2018-09-29T01:29:07.387Z,33.60
2018-09-29T01:31:35.682Z,33.20
2018-09-29T01:34:04.155Z,33.00
2018-09-29T01:36:32.350Z,34.50
2018-09-29T01:39:00.520Z,34.60
2018-09-29T01:41:28.994Z,33.60
2018-09-29T01:43:57.237Z,33.60
2018-09-29T01:46:25.462Z,33.40
2018-09-29T01:48:53.689Z,34.20
2018-09-29T01:51:21.895Z,34.30
2018-09-29T01:53:50.248Z,34.40
2018-09-29T01:56:18.443Z,34.50
2018-09-29T01:58:46.662Z,35.10
2018-09-29T02:01:15.064Z,35.40
2018-09-29T02:03:43.405Z,35.40
2018-09-29T02:06:11.713Z,35.70
2018-09-29T02:08:40.020Z,35.90
2018-09-29T02:11:08.183Z,35.40
2018-09-29T02:13:36.458Z,35.90
2018-09-29T02:16:04.644Z,35.90
2018-09-29T02:18:32.838Z,35.50
2018-09-29T02:21:01.085Z,36.30
2018-09-29T02:23:29.286Z,36.10
2018-09-29T02:25:57.595Z,36.50
2018-09-29T02:28:25.867Z,36.80
2018-09-29T02:30:54.046Z,36.60
2018-09-29T02:33:22.257Z,36.70
2018-09-29T02:35:50.505Z,36.90
2018-09-29T02:38:18.712Z,36.80
2018-09-29T02:40:46.923Z,36.80
2018-09-29T02:43:15.118Z,37.00
2018-09-29T02:45:43.454Z,37.10
2018-09-29T02:48:11.768Z,36.80
2018-09-29T02:50:39.975Z,37.70
2018-09-29T02:53:08.222Z,37.50
2018-09-29T02:55:36.717Z,36.70
2018-09-29T02:58:05.447Z,36.50
2018-09-29T03:00:33.653Z,36.80
2018-09-29T03:03:01.849Z,36.20
2018-09-29T03:05:30.032Z,36.70
2018-09-29T03:07:58.501Z,37.10
2018-09-29T03:10:27.042Z,36.80
2018-09-29T03:12:55.238Z,37.30
2018-09-29T03:15:23.814Z,38.50
2018-09-29T03:17:52.010Z,38.10
2018-09-29T03:20:20.501Z,37.50
2018-09-29T03:22:48.704Z,37.40
2018-09-29T03:25:17.142Z,37.30
2018-09-29T03:27:45.556Z,37.50
2018-09-29T03:30:13.802Z,38.20
2018-09-29T03:32:42.013Z,38.40
2018-09-29T03:35:10.198Z,38.50
2018-09-29T03:37:38.381Z,39.00
2018-09-29T03:40:06.641Z,38.30
2018-09-29T03:42:34.895Z,38.40
2018-09-29T03:45:03.076Z,38.50
2018-09-29T03:47:31.349Z,38.60
2018-09-29T03:49:59.526Z,38.30
2018-09-29T03:52:27.857Z,38.20
2018-09-29T03:54:56.077Z,38.80
2018-09-29T03:57:24.251Z,38.90
2018-09-29T03:59:52.437Z,38.50
2018-09-29T04:02:20.806Z,38.30
2018-09-29T04:04:49.088Z,38.40
2018-09-29T04:07:17.273Z,38.40
2018-09-29T04:09:45.475Z,38.70
2018-09-29T04:12:13.670Z,38.70
2018-09-29T04:14:41.889Z,39.20
2018-09-29T04:17:10.103Z,38.60
2018-09-29T04:19:38.306Z,38.60
2018-09-29T04:22:06.575Z,38.50
2018-09-29T04:24:34.773Z,38.70
2018-09-29T04:27:03.039Z,39.70
2018-09-29T04:29:31.205Z,40.00
2018-09-29T04:31:59.390Z,40.00
2018-09-29T04:34:27.669Z,40.20
2018-09-29T04:36:55.919Z,40.20
2018-09-29T04:39:24.286Z,40.10
2018-09-29T04:41:52.460Z,40.00
2018-09-29T04:44:20.649Z,40.60
2018-09-29T04:46:48.846Z,40.80
2018-09-29T04:49:17.179Z,40.30
2018-09-29T04:51:45.294Z,40.60
2018-09-29T04:54:13.654Z,40.60
2018-09-29T04:56:41.957Z,41.00
2018-09-29T04:59:10.130Z,40.80
2018-09-29T05:01:38.370Z,40.90
2018-09-29T05:04:06.571Z,41.10
2018-09-29T05:06:34.873Z,41.50
2018-09-29T05:09:05.019Z,40.60
2018-09-29T05:11:33.217Z,40.50
2018-09-29T05:14:01.496Z,41.00
2018-09-29T05:16:29.650Z,41.20
2018-09-29T05:18:57.921Z,40.90
2018-09-29T05:21:26.248Z,40.60
2018-09-29T05:23:54.426Z,40.50
2018-09-29T05:26:22.645Z,40.50
2018-09-29T05:28:50.905Z,40.20
2018-09-29T05:31:19.543Z,40.40
2018-09-29T05:33:47.727Z,39.70
2018-09-29T05:36:15.966Z,40.00
2018-09-29T05:38:44.277Z,39.10
2018-09-29T05:41:12.534Z,38.60
2018-09-29T05:43:41.068Z,38.20
2018-09-29T05:46:09.305Z,38.30
2018-09-29T05:48:37.518Z,38.00
2018-09-29T05:51:05.752Z,38.30
2018-09-29T05:53:33.928Z,38.00
2018-09-29T05:56:02.266Z,38.00
2018-09-29T05:58:30.427Z,38.30
2018-09-29T06:00:58.698Z,38.20
2018-09-29T06:03:26.956Z,37.80
2018-09-29T06:05:55.256Z,37.80
2018-09-29T06:08:23.481Z,37.70
2018-09-29T06:10:51.676Z,37.90
2018-09-29T06:13:20.156Z,37.70
2018-09-29T06:15:48.335Z,37.20
2018-09-29T06:18:16.833Z,37.10
2018-09-29T06:20:45.016Z,37.00
2018-09-29T06:23:13.188Z,36.60
2018-09-29T06:25:43.504Z,35.50
2018-09-29T06:28:11.774Z,36.90
2018-09-29T06:30:39.969Z,36.60
2018-09-29T06:33:08.131Z,36.30
2018-09-29T06:35:37.047Z,35.20
2018-09-29T06:38:05.820Z,35.00
2018-09-29T06:40:34.060Z,35.00
2018-09-29T06:43:02.207Z,33.90
2018-09-29T06:45:30.442Z,34.20
2018-09-29T06:47:58.941Z,32.60
2018-09-29T06:50:27.821Z,31.80
2018-09-29T06:52:56.067Z,31.90
2018-09-29T06:55:24.293Z,30.80
2018-09-29T06:57:52.483Z,30.00
2018-09-29T07:00:20.865Z,29.70
2018-09-29T07:02:49.310Z,28.90
2018-09-29T07:05:17.631Z,28.20
2018-09-29T07:07:45.883Z,27.50
2018-09-29T07:10:14.212Z,27.40
2018-09-29T07:12:42.696Z,26.80
2018-09-29T07:15:10.968Z,26.00
2018-09-29T07:17:39.202Z,24.60
2018-09-29T07:20:07.432Z,24.40
2018-09-29T07:22:35.903Z,24.50
2018-09-29T07:25:04.232Z,23.80
2018-09-29T07:27:32.445Z,22.70
2018-09-29T07:30:00.640Z,22.60
2018-09-29T07:32:29.486Z,22.00
2018-09-29T07:34:58.518Z,22.00
2018-09-29T07:37:27.094Z,21.30
2018-09-29T07:39:55.259Z,21.40
2018-09-29T07:42:23.435Z,21.30
2018-09-29T07:44:51.674Z,21.70
2018-09-29T07:47:19.994Z,21.40
2018-09-29T07:49:48.161Z,20.90
2018-09-29T07:52:16.362Z,20.30
2018-09-29T07:54:44.667Z,20.40
2018-09-29T07:57:13.031Z,18.80
2018-09-29T07:59:41.324Z,18.70
2018-09-29T08:02:09.652Z,18.50
2018-09-29T08:04:37.845Z,18.00
2018-09-29T08:07:06.602Z,18.20
2018-09-29T08:09:34.922Z,17.60
2018-09-29T08:12:03.382Z,17.30
2018-09-29T08:14:31.569Z,17.60
2018-09-29T08:16:59.855Z,16.80
2018-09-29T08:19:28.146Z,15.80
2018-09-29T08:21:56.350Z,16.30
2018-09-29T08:24:24.594Z,15.60
2018-09-29T08:26:52.781Z,15.20
2018-09-29T08:29:21.558Z,15.20
2018-09-29T08:31:49.797Z,15.10
2018-09-29T08:34:17.998Z,15.00
2018-09-29T08:36:46.194Z,14.70
2018-09-29T08:39:14.537Z,14.30
2018-09-29T08:41:42.709Z,14.20
2018-09-29T08:44:10.944Z,14.60
2018-09-29T08:46:39.216Z,14.80
2018-09-29T08:49:07.345Z,14.50
2018-09-29T08:51:35.730Z,14.50
2018-09-29T08:54:03.932Z,14.20
2018-09-29T08:56:32.230Z,13.70
2018-09-29T08:59:00.434Z,14.10
2018-09-29T09:01:28.814Z,14.10
2018-09-29T09:03:57.098Z,14.20
2018-09-29T09:06:25.226Z,14.20
2018-09-29T09:08:53.451Z,13.60
2018-09-29T09:11:21.796Z,13.60
2018-09-29T09:13:50.385Z,13.90
2018-09-29T09:16:18.597Z,13.80
2018-09-29T09:18:46.808Z,13.40
2018-09-29T09:21:16.713Z,13.00
2018-09-29T09:23:44.940Z,13.10
2018-09-29T09:26:13.663Z,13.20
2018-09-29T09:28:41.906Z,13.50
2018-09-29T09:31:10.083Z,13.10
2018-09-29T09:33:38.310Z,12.70
2018-09-29T09:36:07.411Z,12.60
2018-09-29T09:38:35.663Z,12.10
2018-09-29T09:41:03.862Z,12.60
2018-09-29T09:43:32.138Z,12.10
2018-09-29T09:46:00.519Z,11.50
2018-09-29T09:48:28.926Z,11.60
2018-09-29T09:50:57.110Z,12.20
2018-09-29T09:53:25.330Z,11.90
2018-09-29T09:55:53.611Z,11.90
2018-09-29T09:58:21.939Z,11.80
2018-09-29T10:00:55.549Z,11.60
2018-09-29T10:03:28.047Z,11.30
2018-09-29T10:05:56.232Z,11.50
2018-09-29T10:08:24.436Z,11.30
2018-09-29T10:10:52.630Z,11.10
2018-09-29T10:13:21.413Z,11.40
2018-09-29T10:15:50.242Z,11.00
2018-09-29T10:18:18.454Z,11.40
2018-09-29T10:20:46.633Z,11.70
2018-09-29T10:23:15.569Z,11.20
2018-09-29T10:25:44.688Z,11.00
2018-09-29T10:28:12.922Z,10.50
2018-09-29T10:30:41.129Z,10.60
2018-09-29T10:33:09.344Z,10.00
2018-09-29T10:35:37.663Z,10.10
2018-09-29T10:38:06.096Z,10.00
2018-09-29T10:40:34.276Z,10.20
2018-09-29T10:43:02.515Z,10.10
2018-09-29T10:45:30.735Z,10.40
2018-09-29T10:47:59.303Z,9.60
2018-09-29T10:50:27.478Z,9.60
2018-09-29T10:52:55.865Z,9.30
2018-09-29T10:55:24.046Z,9.50
2018-09-29T10:57:52.322Z,9.40
2018-09-29T11:00:20.765Z,9.70
2018-09-29T11:02:48.967Z,10.00
2018-09-29T11:05:17.167Z,9.90
2018-09-29T11:07:45.358Z,9.60
2018-09-29T11:10:13.772Z,10.20
2018-09-29T11:12:41.983Z,9.80
2018-09-29T11:15:10.312Z,10.10
2018-09-29T11:17:38.546Z,10.20
2018-09-29T11:20:07.243Z,9.90
2018-09-29T11:22:35.739Z,9.90
2018-09-29T11:25:03.977Z,10.00
2018-09-29T11:27:32.596Z,9.60
2018-09-29T11:30:00.882Z,9.70
2018-09-29T11:32:29.845Z,9.30
2018-09-29T11:34:58.214Z,9.60
2018-09-29T11:37:26.491Z,9.80
2018-09-29T11:39:54.667Z,9.00
2018-09-29T11:42:22.903Z,9.80
2018-09-29T11:44:51.273Z,8.80
2018-09-29T11:47:19.560Z,9.20
2018-09-29T11:49:47.906Z,8.80
2018-09-29T11:52:16.109Z,9.10
2018-09-29T11:54:44.904Z,8.70
2018-09-29T11:57:13.083Z,9.10
2018-09-29T11:59:41.423Z,9.30
2018-09-29T12:02:09.885Z,9.20
2018-09-29T12:04:38.059Z,9.30
2018-09-29T12:07:07.288Z,9.30
2018-09-29T12:09:35.491Z,9.00
2018-09-29T12:12:03.702Z,9.00
2018-09-29T12:14:31.927Z,9.00
2018-09-29T12:17:00.222Z,9.00
2018-09-29T12:19:29.214Z,9.10
2018-09-29T12:21:57.950Z,9.00
2018-09-29T12:24:26.126Z,8.70
2018-09-29T12:26:54.304Z,8.90
2018-09-29T12:29:23.168Z,9.00
2018-09-29T12:31:52.060Z,9.10
2018-09-29T12:34:20.362Z,9.00
2018-09-29T12:36:48.849Z,9.20
2018-09-29T12:39:16.988Z,9.00
2018-09-29T12:41:45.215Z,9.00
2018-09-29T12:44:13.465Z,9.40
2018-09-29T12:46:41.682Z,9.50
2018-09-29T12:49:09.850Z,9.70
2018-09-29T12:51:38.125Z,9.60
2018-09-29T12:54:06.457Z,9.20
2018-09-29T12:56:34.647Z,9.20
2018-09-29T12:59:03.090Z,9.30
2018-09-29T13:01:31.371Z,9.50
2018-09-29T13:03:59.614Z,10.30
2018-09-29T13:06:27.886Z,11.00
2018-09-29T13:08:56.204Z,12.00
2018-09-29T13:11:25.945Z,12.80
2018-09-29T13:13:54.134Z,12.90
2018-09-29T13:16:22.334Z,13.60
2018-09-29T13:18:50.943Z,13.80
2018-09-29T13:21:19.195Z,14.40
2018-09-29T13:23:47.442Z,14.30
2018-09-29T13:26:15.570Z,13.80
2018-09-29T13:28:43.924Z,14.30
2018-09-29T13:31:18.867Z,14.50
2018-09-29T13:33:47.141Z,15.10
2018-09-29T13:36:18.133Z,15.50
2018-09-29T13:38:48.867Z,16.10
2018-09-29T13:41:17.139Z,15.90
2018-09-29T13:43:45.710Z,16.00
2018-09-29T13:46:14.009Z,16.80
2018-09-29T13:48:42.611Z,17.70
2018-09-29T13:51:10.864Z,17.10
2018-09-29T13:53:39.336Z,18.10
2018-09-29T13:56:07.460Z,17.80
2018-09-29T13:58:35.901Z,17.70
2018-09-29T14:01:04.288Z,17.90
2018-09-29T14:03:32.582Z,17.90
2018-09-29T14:06:01.219Z,17.40
2018-09-29T14:08:29.565Z,17.70
2018-09-29T14:10:57.753Z,19.00
2018-09-29T14:13:26.222Z,18.60
2018-09-29T14:15:54.521Z,18.00
2018-09-29T14:18:23.037Z,16.90
2018-09-29T14:20:51.510Z,16.20
2018-09-29T14:23:20.070Z,15.60
2018-09-29T14:25:48.321Z,16.30
2018-09-29T14:28:16.701Z,16.50
2018-09-29T14:30:45.118Z,16.00
2018-09-29T14:33:13.496Z,15.70
2018-09-29T14:35:41.715Z,15.50
2018-09-29T14:38:09.894Z,15.40
2018-09-29T14:40:38.132Z,15.70
2018-09-29T14:43:06.727Z,15.90
2018-09-29T14:45:35.052Z,16.70
2018-09-29T14:48:03.242Z,16.90
2018-09-29T14:50:31.621Z,17.70
2018-09-29T14:52:59.887Z,17.70
2018-09-29T14:55:28.081Z,18.30
2018-09-29T14:57:56.604Z,18.60
2018-09-29T15:00:24.675Z,19.10
2018-09-29T15:02:52.864Z,19.10
2018-09-29T15:05:21.024Z,20.10
2018-09-29T15:07:49.674Z,19.00
2018-09-29T15:10:17.988Z,19.30
2018-09-29T15:12:46.150Z,19.30
2018-09-29T15:15:14.361Z,19.30
2018-09-29T15:17:43.132Z,18.80
2018-09-29T15:20:11.291Z,19.80
2018-09-29T15:22:39.569Z,19.80
2018-09-29T15:25:07.756Z,19.70
2018-09-29T15:27:35.946Z,20.50
2018-09-29T15:30:04.235Z,19.70
2018-09-29T15:32:32.400Z,18.60
2018-09-29T15:35:00.642Z,18.00
2018-09-29T15:37:28.835Z,17.50
2018-09-29T15:39:57.021Z,18.00
2018-09-29T15:42:25.261Z,18.10
2018-09-29T15:44:53.438Z,18.60
2018-09-29T15:47:21.710Z,19.10
2018-09-29T15:49:49.937Z,19.20
2018-09-29T15:52:18.105Z,19.30
2018-09-29T15:54:46.285Z,19.60
2018-09-29T15:57:14.470Z,19.60
2018-09-29T15:59:42.999Z,19.70
2018-09-29T16:02:11.211Z,19.10
2018-09-29T16:04:39.399Z,19.30
2018-09-29T16:07:07.579Z,18.70
2018-09-29T16:09:35.885Z,19.00
2018-09-29T16:12:04.578Z,18.90
2018-09-29T16:14:32.917Z,19.00
2018-09-29T16:17:01.189Z,19.20
2018-09-29T16:19:29.619Z,19.10
2018-09-29T16:21:58.630Z,19.80
2018-09-29T16:24:26.939Z,20.20
2018-09-29T16:26:55.314Z,20.50
2018-09-29T16:29:24.615Z,21.00
2018-09-29T16:31:52.926Z,21.60
2018-09-29T16:34:21.178Z,21.40
2018-09-29T16:36:49.635Z,23.10
2018-09-29T16:39:17.913Z,22.90
2018-09-29T16:41:46.280Z,22.70
2018-09-29T16:44:14.480Z,22.00
2018-09-29T16:46:42.724Z,22.20
2018-09-29T16:49:10.943Z,22.30
2018-09-29T16:51:39.114Z,22.40
2018-09-29T16:54:07.486Z,23.20
2018-09-29T16:56:35.998Z,23.60
2018-09-29T16:59:04.436Z,23.60
2018-09-29T17:01:32.602Z,23.20
2018-09-29T17:04:00.939Z,24.10
2018-09-29T17:06:29.016Z,24.60
2018-09-29T17:08:57.276Z,24.10
2018-09-29T17:11:25.560Z,24.30
2018-09-29T17:13:53.833Z,24.80
2018-09-29T17:16:22.149Z,25.10
2018-09-29T17:18:50.372Z,25.30
2018-09-29T17:21:19.088Z,25.20
2018-09-29T17:23:47.197Z,25.20
2018-09-29T17:26:15.418Z,25.60
2018-09-29T17:28:58.686Z,25.90
2018-09-29T17:31:27.712Z,24.90
2018-09-29T17:33:55.861Z,25.70
2018-09-29T17:36:23.988Z,25.90
2018-09-29T17:41:28.505Z,25.90
2018-09-29T17:43:56.741Z,25.90
2018-09-29T17:46:24.881Z,26.00
2018-09-29T17:48:53.087Z,25.70
2018-09-29T17:51:21.273Z,26.20
2018-09-29T17:53:49.458Z,26.60
2018-09-29T17:56:17.627Z,26.50
2018-09-29T17:58:45.860Z,26.40
2018-09-29T18:01:14.206Z,26.90
2018-09-29T18:03:42.418Z,25.80
2018-09-29T18:06:10.703Z,25.60
2018-09-29T18:08:38.984Z,26.10
2018-09-29T18:11:07.304Z,26.60
2018-09-29T18:13:35.758Z,26.80
2018-09-29T18:16:03.860Z,26.90
2018-09-29T18:18:32.101Z,26.50
2018-09-29T18:21:00.314Z,26.50
2018-09-29T18:23:28.745Z,26.50
2018-09-29T18:25:57.254Z,26.30
2018-09-29T18:28:25.492Z,26.40
2018-09-29T18:30:53.641Z,26.90
2018-09-29T18:33:21.861Z,26.70
2018-09-29T18:35:50.223Z,27.20
2018-09-29T18:38:18.663Z,26.30
2018-09-29T18:40:47.806Z,26.40
2018-09-29T18:43:16.001Z,26.70
2018-09-29T18:45:44.388Z,27.00
2018-09-29T18:48:12.845Z,27.30
2018-09-29T18:50:41.153Z,27.50
2018-09-29T18:53:09.370Z,27.30
2018-09-29T18:55:37.606Z,27.30
2018-09-29T18:58:05.886Z,27.00
2018-09-29T19:00:34.051Z,27.00
2018-09-29T19:03:02.242Z,27.30
2018-09-29T19:05:30.549Z,27.20
2018-09-29T19:07:58.822Z,27.30
2018-09-29T19:10:27.040Z,27.00
2018-09-29T19:12:55.230Z,27.10
2018-09-29T19:15:23.410Z,27.40
2018-09-29T19:17:53.507Z,27.50
2018-09-29T19:20:21.782Z,27.80
2018-09-29T19:22:50.017Z,27.90
2018-09-29T19:25:18.242Z,27.90
2018-09-29T19:27:46.393Z,28.10
2018-09-29T19:30:14.849Z,28.10
2018-09-29T19:32:43.187Z,27.80
2018-09-29T19:35:11.342Z,28.30
2018-09-29T19:37:39.511Z,27.60
2018-09-29T19:40:07.823Z,27.40
2018-09-29T19:42:36.161Z,28.00
2018-09-29T19:45:04.370Z,28.30
2018-09-29T19:47:32.874Z,28.30
2018-09-29T19:50:01.027Z,28.40
2018-09-29T19:52:30.304Z,28.60
2018-09-29T19:54:58.705Z,28.40
2018-09-29T19:57:27.206Z,28.10
2018-09-29T19:59:55.513Z,28.00
2018-09-29T20:02:23.776Z,28.20
2018-09-29T20:04:52.023Z,28.60
2018-09-29T20:07:21.509Z,28.80
2018-09-29T20:09:50.136Z,28.70
2018-09-29T20:12:18.316Z,29.00
2018-09-29T20:14:46.543Z,29.00
2018-09-29T20:17:14.920Z,28.90
2018-09-29T20:19:43.721Z,29.10
2018-09-29T20:22:12.229Z,29.40
2018-09-29T20:24:40.600Z,29.80
2018-09-29T20:27:09.014Z,29.70
2018-09-29T20:29:37.238Z,30.00
2018-09-29T20:32:05.511Z,30.00
2018-09-29T20:34:33.890Z,30.50
2018-09-29T20:37:02.162Z,30.60
2018-09-29T20:39:30.432Z,30.50
2018-09-29T20:41:58.731Z,30.50
2018-09-29T20:44:26.998Z,30.60
2018-09-29T20:46:55.365Z,30.70
2018-09-29T20:49:23.611Z,30.90
2018-09-29T20:51:52.381Z,30.30
2018-09-29T20:54:20.654Z,30.30
2018-09-29T20:56:48.890Z,30.80
2018-09-29T20:59:17.121Z,30.50
2018-09-29T21:01:45.407Z,30.70
2018-09-29T21:04:14.229Z,30.60
2018-09-29T21:06:43.045Z,30.50
2018-09-29T21:09:11.553Z,30.60
2018-09-29T21:11:39.801Z,31.10
2018-09-29T21:14:08.038Z,31.30
2018-09-29T21:16:36.775Z,31.30
2018-09-29T21:19:05.150Z,31.20
2018-09-29T21:21:33.897Z,31.30
2018-09-29T21:24:02.160Z,31.10
2018-09-29T21:26:30.353Z,31.40
2018-09-29T21:28:58.766Z,31.50
2018-09-29T21:31:26.996Z,31.70
2018-09-29T21:33:55.560Z,31.50
2018-09-29T21:36:23.783Z,31.50
2018-09-29T21:38:52.184Z,31.80
2018-09-29T21:41:20.537Z,32.00
2018-09-29T21:43:49.054Z,31.90
2018-09-29T21:46:17.744Z,31.80
2018-09-29T21:48:45.957Z,31.60
2018-09-29T21:51:14.645Z,31.50
2018-09-29T21:53:43.157Z,31.60
2018-09-29T21:56:11.433Z,31.80
2018-09-29T21:58:39.718Z,31.80
2018-09-29T22:01:13.344Z,31.90
2018-09-29T22:03:41.649Z,31.80
2018-09-29T22:06:09.987Z,32.10
2018-09-29T22:08:38.321Z,32.30
2018-09-29T22:11:06.841Z,32.20
2018-09-29T22:13:35.175Z,32.60
2018-09-29T22:16:03.691Z,32.90
2018-09-29T22:18:31.981Z,33.10
2018-09-29T22:21:00.387Z,32.90
2018-09-29T22:23:30.196Z,33.00
2018-09-29T22:25:58.933Z,33.10
2018-09-29T22:28:27.719Z,32.80
2018-09-29T22:30:56.126Z,32.70
2018-09-29T22:33:24.603Z,33.20
2018-09-29T22:35:52.839Z,32.40
2018-09-29T22:38:21.121Z,32.40
2018-09-29T22:40:49.297Z,32.90
2018-09-29T22:43:17.541Z,33.10
2018-09-29T22:45:45.710Z,33.00
2018-09-29T22:48:15.052Z,33.20
2018-09-29T22:50:43.576Z,33.30
2018-09-29T22:53:11.664Z,33.10
2018-09-29T22:55:39.905Z,33.20
2018-09-29T22:58:08.350Z,33.20
2018-09-29T23:00:36.653Z,33.40
2018-09-29T23:03:05.018Z,33.60
2018-09-29T23:05:33.237Z,33.80
2018-09-29T23:08:01.492Z,33.80
2018-09-29T23:10:29.961Z,33.70
2018-09-29T23:12:58.277Z,33.90
2018-09-29T23:15:26.545Z,33.80
2018-09-29T23:17:54.910Z,33.40
2018-09-29T23:20:23.159Z,33.60
2018-09-29T23:22:51.725Z,34.10
2018-09-29T23:25:20.117Z,34.50
2018-09-29T23:27:48.316Z,34.30
2018-09-29T23:30:16.520Z,34.10
2018-09-29T23:32:46.137Z,33.90
2018-09-29T23:35:14.586Z,34.30
2018-09-29T23:37:42.933Z,34.60
2018-09-29T23:40:11.168Z,34.50
2018-09-29T23:42:39.329Z,34.50
2018-09-29T23:45:08.154Z,34.30
2018-09-29T23:47:36.613Z,34.10
2018-09-29T23:50:04.970Z,34.30
2018-09-29T23:52:33.184Z,34.70
2018-09-29T23:55:01.430Z,34.70
2018-09-29T23:57:30.160Z,34.90
2018-09-29T23:59:58.497Z,34.70
